Time;durP1;ratioP1;P1;durP2;ratioP2;P2;SDS_P1;SDS_P2;PMS_P1;PMS_P2;Temp;Humidity;BMP_temperature;BMP_pressure;BME280_temperature;BME280_humidity;BME280_pressure;Samples;Min_cycle;Max_cycle;Signal;HPM_P1;HPM_P2
2024/04/07 00:00:59;;;;;;;;;;;18.80;97.80;;;;;;5077553;28;19920;-77
2024/04/07 00:03:24;;;;;;;;;;;18.80;97.60;;;;;;5071536;28;19941;-77
2024/04/07 00:05:53;;;;;;;;;;;18.80;97.60;;;;;;5108787;28;19922;-77
2024/04/07 00:08:19;;;;;;;;;;;18.80;97.60;;;;;;5059982;28;19916;-78
2024/04/07 00:10:44;;;;;;;;;;;18.80;97.60;;;;;;5079477;28;19923;-78
2024/04/07 00:13:10;;;;;;;;;;;18.90;97.60;;;;;;5062484;28;19912;-78
2024/04/07 00:15:36;;;;;;;;;;;18.80;97.70;;;;;;5078940;28;19912;-78
2024/04/07 00:18:01;;;;;;;;;;;18.80;97.70;;;;;;5058478;28;19948;-78
2024/04/07 00:20:27;;;;;;;;;;;18.80;97.60;;;;;;5038118;28;20224;-78
2024/04/07 00:22:53;;;;;;;;;;;18.80;98.00;;;;;;5046895;28;19988;-78
2024/04/07 00:25:19;;;;;;;;;;;18.70;98.10;;;;;;5075699;28;19962;-77
2024/04/07 00:27:44;;;;;;;;;;;18.80;98.20;;;;;;5060991;28;20313;-78
2024/04/07 00:30:10;;;;;;;;;;;18.70;98.10;;;;;;5064212;28;19977;-77
2024/04/07 00:32:36;;;;;;;;;;;18.70;98.10;;;;;;5069022;28;19998;-77
2024/04/07 00:35:02;;;;;;;;;;;18.60;98.20;;;;;;5061051;28;19924;-78
2024/04/07 00:37:28;;;;;;;;;;;18.60;98.30;;;;;;5074377;28;19913;-78
2024/04/07 00:39:57;;;;;;;;;;;18.60;98.30;;;;;;5059824;28;19926;-77
2024/04/07 00:42:23;;;;;;;;;;;18.60;98.40;;;;;;5076895;28;19920;-77
2024/04/07 00:44:49;;;;;;;;;;;18.50;98.40;;;;;;5067848;28;19912;-77
2024/04/07 00:47:15;;;;;;;;;;;18.50;98.40;;;;;;5049374;28;19912;-77
2024/04/07 00:49:41;;;;;;;;;;;18.50;98.50;;;;;;5079331;28;19934;-78
2024/04/07 00:52:06;;;;;;;;;;;18.50;98.60;;;;;;5080301;28;19924;-77
2024/04/07 00:54:32;;;;;;;;;;;18.40;98.60;;;;;;5061904;28;19916;-78
2024/04/07 00:56:58;;;;;;;;;;;18.40;98.70;;;;;;5055076;28;19916;-77
2024/04/07 00:59:24;;;;;;;;;;;18.40;98.60;;;;;;5060462;28;20232;-77
2024/04/07 01:01:49;;;;;;;;;;;18.40;98.60;;;;;;5059780;28;19920;-77
2024/04/07 01:04:15;;;;;;;;;;;18.30;98.50;;;;;;5060414;28;19999;-79
2024/04/07 01:06:41;;;;;;;;;;;18.30;98.50;;;;;;5080669;28;19912;-79
2024/04/07 01:09:07;;;;;;;;;;;18.30;98.40;;;;;;5063596;28;19920;-80
2024/04/07 01:11:33;;;;;;;;;;;18.30;98.20;;;;;;5047313;28;20358;-80
2024/04/07 01:13:58;;;;;;;;;;;18.30;98.10;;;;;;5075877;28;19922;-79
2024/04/07 01:16:24;;;;;;;;;;;18.30;97.90;;;;;;5063650;28;19991;-80
2024/04/07 01:18:50;;;;;;;;;;;18.30;97.70;;;;;;5059909;28;19913;-80
2024/04/07 01:21:15;;;;;;;;;;;18.40;97.90;;;;;;5044019;28;19924;-80
2024/04/07 01:23:41;;;;;;;;;;;18.40;97.60;;;;;;5058409;28;20159;-80
2024/04/07 01:26:07;;;;;;;;;;;18.30;97.40;;;;;;5067864;28;19916;-80
2024/04/07 01:28:32;;;;;;;;;;;18.40;97.20;;;;;;5080299;28;19927;-79
2024/04/07 01:30:58;;;;;;;;;;;18.40;97.30;;;;;;5047970;28;19926;-79
2024/04/07 01:33:24;;;;;;;;;;;18.40;97.10;;;;;;5083459;28;19934;-79
2024/04/07 01:35:49;;;;;;;;;;;18.40;96.90;;;;;;5081671;28;20329;-79
2024/04/07 01:38:15;;;;;;;;;;;18.40;96.80;;;;;;5090593;28;20354;-79
2024/04/07 01:40:41;;;;;;;;;;;18.40;97.20;;;;;;5102040;28;19924;-80
2024/04/07 01:43:07;;;;;;;;;;;18.40;97.40;;;;;;5072409;28;19916;-80
2024/04/07 01:45:32;;;;;;;;;;;18.40;97.20;;;;;;5054089;28;19916;-80
2024/04/07 01:47:58;;;;;;;;;;;18.40;97.10;;;;;;5083362;28;19947;-79
2024/04/07 01:50:23;;;;;;;;;;;18.40;97.10;;;;;;5084369;28;20038;-79
2024/04/07 01:52:49;;;;;;;;;;;18.40;96.60;;;;;;5068230;28;19923;-79
2024/04/07 01:55:15;;;;;;;;;;;18.40;96.80;;;;;;5068195;28;19927;-80
2024/04/07 01:57:40;;;;;;;;;;;18.40;96.40;;;;;;5075772;28;19916;-80
2024/04/07 02:00:07;;;;;;;;;;;18.40;96.40;;;;;;5084378;28;19958;-80
2024/04/07 02:02:36;;;;;;;;;;;18.50;96.20;;;;;;5079194;28;19970;-80
2024/04/07 02:05:02;;;;;;;;;;;18.60;96.10;;;;;;5084380;28;19931;-79
2024/04/07 02:07:28;;;;;;;;;;;18.60;96.20;;;;;;5082287;28;20499;-80
2024/04/07 02:09:54;;;;;;;;;;;18.60;96.00;;;;;;5050095;28;19927;-79
2024/04/07 02:12:20;;;;;;;;;;;18.70;95.70;;;;;;5062444;28;19916;-80
2024/04/07 02:14:45;;;;;;;;;;;18.70;95.40;;;;;;5047240;28;20316;-80
2024/04/07 02:17:11;;;;;;;;;;;18.70;95.50;;;;;;5065676;28;19916;-79
2024/04/07 02:19:37;;;;;;;;;;;18.80;95.50;;;;;;5067108;28;20401;-79
2024/04/07 02:22:03;;;;;;;;;;;18.80;95.50;;;;;;5066825;28;19916;-79
2024/04/07 02:24:29;;;;;;;;;;;18.80;95.50;;;;;;5093425;28;19923;-79
2024/04/07 02:26:55;;;;;;;;;;;18.80;95.40;;;;;;5074075;28;19916;-79
2024/04/07 02:29:21;;;;;;;;;;;18.80;95.20;;;;;;5080527;28;19915;-79
2024/04/07 02:31:47;;;;;;;;;;;18.90;95.20;;;;;;5064870;28;20229;-79
2024/04/07 02:34:13;;;;;;;;;;;18.90;95.30;;;;;;5062363;28;19963;-79
2024/04/07 02:36:39;;;;;;;;;;;18.90;95.30;;;;;;5072222;28;19920;-79
2024/04/07 02:39:09;;;;;;;;;;;18.90;95.40;;;;;;5062829;28;19916;-79
2024/04/07 02:41:40;;;;;;;;;;;18.90;95.50;;;;;;5047094;28;19985;-79
2024/04/07 02:44:08;;;;;;;;;;;18.90;95.60;;;;;;5058644;28;20328;-79
2024/04/07 02:49:18;;;;;;;;;;;18.80;95.60;;;;;;5098503;28;19915;-79
2024/04/07 02:51:44;;;;;;;;;;;18.80;95.70;;;;;;5072390;28;20019;-80
2024/04/07 02:54:10;;;;;;;;;;;18.80;95.90;;;;;;5062930;28;19919;-79
2024/04/07 02:56:36;;;;;;;;;;;18.70;95.90;;;;;;5062765;28;19912;-81
2024/04/07 02:59:02;;;;;;;;;;;18.70;95.80;;;;;;5060573;28;20483;-78
2024/04/07 03:01:27;;;;;;;;;;;18.70;95.90;;;;;;5057654;28;19977;-79
2024/04/07 03:03:53;;;;;;;;;;;18.70;96.00;;;;;;5093622;28;20706;-79
2024/04/07 03:06:19;;;;;;;;;;;18.60;96.00;;;;;;5061723;28;20647;-79
2024/04/07 03:08:44;;;;;;;;;;;18.60;96.10;;;;;;5071737;28;19986;-79
2024/04/07 03:11:10;;;;;;;;;;;18.60;96.00;;;;;;5085912;28;19912;-79
2024/04/07 03:13:36;;;;;;;;;;;18.60;96.20;;;;;;5065484;28;19916;-78
2024/04/07 03:16:07;;;;;;;;;;;18.60;96.30;;;;;;5079579;28;19954;-80
2024/04/07 03:18:32;;;;;;;;;;;18.50;96.40;;;;;;5069374;28;19972;-80
2024/04/07 03:20:58;;;;;;;;;;;18.50;96.60;;;;;;5097988;28;19924;-78
2024/04/07 03:23:24;;;;;;;;;;;18.50;96.70;;;;;;5085096;28;20380;-79
2024/04/07 03:25:49;;;;;;;;;;;18.50;96.60;;;;;;5091000;28;19977;-79
2024/04/07 03:28:15;;;;;;;;;;;18.40;96.60;;;;;;5077919;28;19912;-79
2024/04/07 03:30:42;;;;;;;;;;;18.40;96.50;;;;;;5061818;28;19916;-78
2024/04/07 03:33:07;;;;;;;;;;;18.40;96.50;;;;;;5074897;28;20044;-79
2024/04/07 03:35:33;;;;;;;;;;;18.40;96.50;;;;;;5100505;28;20355;-79
2024/04/07 03:37:59;;;;;;;;;;;18.30;96.40;;;;;;5063026;28;20719;-79
2024/04/07 03:40:25;;;;;;;;;;;18.30;96.40;;;;;;5066067;28;19946;-79
2024/04/07 03:42:50;;;;;;;;;;;18.40;96.60;;;;;;5063544;28;19924;-79
2024/04/07 03:45:16;;;;;;;;;;;18.30;96.60;;;;;;5075230;28;19999;-79
2024/04/07 03:47:42;;;;;;;;;;;18.30;96.50;;;;;;5099663;28;19973;-79
2024/04/07 03:50:07;;;;;;;;;;;18.30;96.60;;;;;;5065620;28;19916;-79
2024/04/07 03:52:33;;;;;;;;;;;18.30;96.90;;;;;;5076493;28;19969;-79
2024/04/07 03:54:59;;;;;;;;;;;18.20;96.60;;;;;;5064260;28;20035;-79
2024/04/07 03:57:24;;;;;;;;;;;18.20;96.60;;;;;;5074133;28;19916;-78
2024/04/07 03:59:50;;;;;;;;;;;18.20;96.20;;;;;;5060054;28;19916;-79
2024/04/07 04:02:26;;;;;;;;;;;18.20;96.20;;;;;;5098022;28;19916;-79
2024/04/07 04:04:55;;;;;;;;;;;18.30;96.10;;;;;;5043393;28;19920;-79
2024/04/07 04:07:21;;;;;;;;;;;18.30;95.90;;;;;;5089074;28;19916;-79
2024/04/07 04:09:46;;;;;;;;;;;18.40;95.10;;;;;;5080352;28;19912;-79
2024/04/07 04:12:12;;;;;;;;;;;18.60;95.10;;;;;;5080322;28;20252;-78
2024/04/07 04:14:38;;;;;;;;;;;18.70;94.80;;;;;;5073523;28;19912;-78
2024/04/07 04:17:03;;;;;;;;;;;19.00;94.00;;;;;;5090154;28;19916;-78
2024/04/07 04:19:29;;;;;;;;;;;19.20;93.20;;;;;;5079741;28;19970;-80
2024/04/07 04:21:55;;;;;;;;;;;19.30;93.50;;;;;;5075330;28;20387;-79
2024/04/07 04:24:23;;;;;;;;;;;19.40;93.00;;;;;;5051724;28;20356;-78
2024/04/07 04:26:48;;;;;;;;;;;19.70;92.50;;;;;;5078655;28;19916;-78
2024/04/07 04:29:14;;;;;;;;;;;19.80;92.30;;;;;;5069150;28;19923;-79
2024/04/07 04:31:39;;;;;;;;;;;19.90;92.00;;;;;;5077445;28;20390;-78
2024/04/07 04:34:05;;;;;;;;;;;20.20;91.70;;;;;;5092717;28;19912;-78
2024/04/07 04:36:31;;;;;;;;;;;20.30;91.70;;;;;;5076526;28;19916;-77
2024/04/07 04:38:56;;;;;;;;;;;20.40;91.10;;;;;;5044352;28;19916;-79
2024/04/07 04:41:22;;;;;;;;;;;20.50;91.20;;;;;;5072386;28;19928;-79
2024/04/07 04:43:48;;;;;;;;;;;20.40;91.20;;;;;;5064720;28;20011;-79
2024/04/07 04:46:13;;;;;;;;;;;20.50;90.70;;;;;;5079809;28;19998;-79
2024/04/07 04:48:39;;;;;;;;;;;20.50;90.80;;;;;;5097625;28;19923;-79
2024/04/07 04:51:05;;;;;;;;;;;20.60;90.40;;;;;;5042853;28;19974;-79
2024/04/07 04:53:30;;;;;;;;;;;20.60;90.20;;;;;;5066032;28;20362;-79
2024/04/07 04:56:01;;;;;;;;;;;20.60;90.40;;;;;;5079765;28;19924;-79
2024/04/07 04:58:27;;;;;;;;;;;20.60;90.30;;;;;;5080265;28;20005;-79
2024/04/07 05:00:53;;;;;;;;;;;20.60;90.50;;;;;;5081138;28;20505;-79
2024/04/07 05:03:19;;;;;;;;;;;20.60;90.70;;;;;;5064217;28;19912;-79
2024/04/07 05:05:44;;;;;;;;;;;20.50;90.60;;;;;;5065845;28;19923;-78
2024/04/07 05:08:10;;;;;;;;;;;20.50;90.60;;;;;;5056887;28;19912;-78
2024/04/07 05:10:35;;;;;;;;;;;20.50;90.60;;;;;;5062167;28;19912;-79
2024/04/07 05:13:01;;;;;;;;;;;20.40;90.80;;;;;;5068391;28;20279;-79
2024/04/07 05:15:27;;;;;;;;;;;20.40;90.70;;;;;;5085183;28;19943;-78
2024/04/07 05:17:53;;;;;;;;;;;20.40;90.80;;;;;;5099383;28;19963;-79
2024/04/07 05:20:18;;;;;;;;;;;20.40;90.90;;;;;;5083160;28;19916;-79
2024/04/07 05:22:44;;;;;;;;;;;20.30;91.10;;;;;;5094951;28;20033;-79
2024/04/07 05:25:10;;;;;;;;;;;20.30;91.20;;;;;;5047252;28;19990;-78
2024/04/07 05:27:35;;;;;;;;;;;20.30;91.20;;;;;;5064392;28;19916;-80
2024/04/07 05:30:02;;;;;;;;;;;20.20;91.40;;;;;;5092280;28;19942;-79
2024/04/07 05:32:27;;;;;;;;;;;20.20;91.60;;;;;;5050244;28;19913;-79
2024/04/07 05:34:53;;;;;;;;;;;20.10;91.50;;;;;;5058238;28;20384;-80
2024/04/07 05:37:19;;;;;;;;;;;20.10;91.60;;;;;;5083532;28;19923;-80
2024/04/07 05:39:48;;;;;;;;;;;20.10;91.70;;;;;;5082129;28;19920;-78
2024/04/07 05:42:13;;;;;;;;;;;20.00;91.90;;;;;;5046698;28;20329;-79
2024/04/07 05:44:39;;;;;;;;;;;20.00;91.90;;;;;;5070817;28;20014;-80
2024/04/07 05:47:04;;;;;;;;;;;20.00;91.60;;;;;;5070056;28;19923;-78
2024/04/07 05:49:33;;;;;;;;;;;20.00;91.60;;;;;;5060700;28;20007;-78
2024/04/07 05:51:59;;;;;;;;;;;20.00;91.60;;;;;;5047746;28;20039;-79
2024/04/07 05:54:27;;;;;;;;;;;20.10;91.70;;;;;;5039292;28;19999;-79
2024/04/07 05:56:52;;;;;;;;;;;20.10;91.80;;;;;;5059529;28;19920;-78
2024/04/07 05:59:18;;;;;;;;;;;20.00;91.60;;;;;;5059413;28;19993;-78
2024/04/07 06:01:43;;;;;;;;;;;20.00;92.00;;;;;;5023791;28;20244;-79
2024/04/07 06:04:09;;;;;;;;;;;20.00;92.10;;;;;;5026590;28;19913;-79
2024/04/07 06:06:35;;;;;;;;;;;19.90;92.20;;;;;;5042399;28;20313;-78
2024/04/07 06:09:00;;;;;;;;;;;19.90;92.30;;;;;;5041767;28;20644;-78
2024/04/07 06:11:26;;;;;;;;;;;19.90;92.50;;;;;;5043104;28;20546;-78
2024/04/07 06:13:52;;;;;;;;;;;19.90;92.70;;;;;;5042669;28;20336;-79
2024/04/07 06:16:17;;;;;;;;;;;19.80;93.10;;;;;;5011614;28;19917;-79
2024/04/07 06:18:46;;;;;;;;;;;19.80;93.10;;;;;;5032960;28;19928;-79
2024/04/07 06:21:11;;;;;;;;;;;19.80;93.40;;;;;;5036091;28;19920;-78
2024/04/07 06:23:37;;;;;;;;;;;19.70;93.40;;;;;;5063576;28;19949;-79
2024/04/07 06:26:03;;;;;;;;;;;19.60;93.80;;;;;;5026486;28;19921;-79
2024/04/07 06:28:28;;;;;;;;;;;19.50;94.10;;;;;;5042975;28;20592;-79
2024/04/07 06:30:54;;;;;;;;;;;19.40;94.10;;;;;;5041109;28;20333;-79
2024/04/07 06:33:21;;;;;;;;;;;19.40;94.40;;;;;;5042369;28;20332;-80
2024/04/07 06:35:47;;;;;;;;;;;19.40;94.50;;;;;;5043807;28;20359;-79
2024/04/07 06:38:12;;;;;;;;;;;19.30;94.80;;;;;;5075703;28;19950;-79
2024/04/07 06:40:38;;;;;;;;;;;19.30;95.00;;;;;;5070420;28;19959;-79
2024/04/07 06:43:05;;;;;;;;;;;19.30;95.40;;;;;;5097017;28;20280;-79
2024/04/07 06:45:31;;;;;;;;;;;19.20;95.60;;;;;;5059170;28;20380;-78
2024/04/07 06:47:57;;;;;;;;;;;19.20;96.00;;;;;;5079337;28;19951;-78
2024/04/07 06:50:22;;;;;;;;;;;19.10;96.40;;;;;;5062523;28;20278;-78
2024/04/07 06:52:48;;;;;;;;;;;19.10;97.20;;;;;;5062019;28;20240;-78
2024/04/07 06:55:13;;;;;;;;;;;19.00;97.90;;;;;;5061479;28;20332;-78
2024/04/07 06:57:39;;;;;;;;;;;19.00;98.30;;;;;;5058496;28;19970;-78
2024/04/07 07:00:05;;;;;;;;;;;19.00;98.80;;;;;;5079315;28;20343;-78
2024/04/07 07:02:31;;;;;;;;;;;18.90;99.20;;;;;;5078942;28;20014;-78
2024/04/07 07:04:56;;;;;;;;;;;18.90;99.30;;;;;;5042223;28;19912;-78
2024/04/07 07:07:22;;;;;;;;;;;18.90;99.80;;;;;;5059216;28;20333;-78
2024/04/07 07:09:47;;;;;;;;;;;18.90;99.90;;;;;;5078016;28;19916;-78
2024/04/07 07:12:13;;;;;;;;;;;18.80;99.90;;;;;;5094266;28;20049;-78
2024/04/07 07:14:39;;;;;;;;;;;18.80;99.90;;;;;;5065797;28;19912;-78
2024/04/07 07:17:05;;;;;;;;;;;18.80;99.90;;;;;;5091411;28;20331;-78
2024/04/07 07:19:31;;;;;;;;;;;18.70;99.90;;;;;;5068484;28;19916;-78
2024/04/07 07:21:56;;;;;;;;;;;18.70;99.90;;;;;;5077508;28;19955;-77
2024/04/07 07:24:22;;;;;;;;;;;18.60;99.90;;;;;;5097070;28;19924;-79
2024/04/07 07:26:48;;;;;;;;;;;18.60;99.90;;;;;;5065468;28;19923;-80
2024/04/07 07:29:14;;;;;;;;;;;18.60;99.90;;;;;;5057926;28;19916;-79
2024/04/07 07:31:40;;;;;;;;;;;18.60;99.90;;;;;;5078246;28;19947;-79
2024/04/07 07:34:05;;;;;;;;;;;18.60;99.90;;;;;;5082167;28;19954;-79
2024/04/07 07:36:31;;;;;;;;;;;18.60;99.90;;;;;;5063898;28;20292;-79
2024/04/07 07:38:58;;;;;;;;;;;18.70;99.90;;;;;;5094592;28;20252;-79
2024/04/07 07:41:24;;;;;;;;;;;18.60;99.90;;;;;;5055701;28;19920;-79
2024/04/07 07:43:50;;;;;;;;;;;18.70;99.90;;;;;;5025047;28;19923;-79
2024/04/07 07:46:16;;;;;;;;;;;18.60;99.90;;;;;;5042535;28;19913;-79
2024/04/07 07:48:41;;;;;;;;;;;18.60;99.90;;;;;;5047848;28;19972;-79
2024/04/07 07:51:08;;;;;;;;;;;18.60;99.90;;;;;;5059582;28;19921;-78
2024/04/07 07:53:34;;;;;;;;;;;18.60;99.90;;;;;;5046107;28;19912;-78
2024/04/07 07:56:00;;;;;;;;;;;18.70;99.90;;;;;;5061391;28;19939;-78
2024/04/07 07:58:26;;;;;;;;;;;18.60;99.90;;;;;;5076179;28;20325;-79
2024/04/07 08:00:51;;;;;;;;;;;18.60;99.90;;;;;;5091359;28;20239;-79
2024/04/07 08:03:17;;;;;;;;;;;18.60;99.90;;;;;;5060920;28;20304;-79
2024/04/07 08:05:43;;;;;;;;;;;18.60;99.90;;;;;;5077280;28;20229;-78
2024/04/07 08:08:09;;;;;;;;;;;18.60;99.90;;;;;;5077818;28;19920;-78
2024/04/07 08:10:37;;;;;;;;;;;18.60;99.90;;;;;;5061673;28;20663;-79
2024/04/07 08:13:03;;;;;;;;;;;18.60;99.90;;;;;;5078643;28;19912;-79
2024/04/07 08:15:29;;;;;;;;;;;18.60;99.90;;;;;;5044086;28;20324;-79
2024/04/07 08:17:54;;;;;;;;;;;18.70;99.90;;;;;;5043797;28;19990;-79
2024/04/07 08:20:20;;;;;;;;;;;18.70;99.90;;;;;;5057624;28;19916;-79
2024/04/07 08:22:45;;;;;;;;;;;18.80;99.90;;;;;;5072040;28;20018;-79
2024/04/07 08:25:11;;;;;;;;;;;18.70;99.90;;;;;;5077873;28;19923;-79
2024/04/07 08:27:37;;;;;;;;;;;18.70;99.90;;;;;;5094892;28;19919;-79
2024/04/07 08:30:03;;;;;;;;;;;18.70;99.90;;;;;;5061188;28;19927;-78
2024/04/07 08:32:29;;;;;;;;;;;18.70;99.90;;;;;;5094461;28;19916;-79
2024/04/07 08:34:54;;;;;;;;;;;18.70;99.90;;;;;;5043387;28;19918;-79
2024/04/07 08:37:20;;;;;;;;;;;18.80;99.90;;;;;;5076963;28;19994;-79
2024/04/07 08:39:46;;;;;;;;;;;18.80;99.90;;;;;;5043208;28;19916;-80
2024/04/07 08:42:14;;;;;;;;;;;18.90;99.90;;;;;;5074791;28;20629;-80
2024/04/07 08:44:39;;;;;;;;;;;19.00;99.90;;;;;;5040695;28;19944;-80
2024/04/07 08:47:05;;;;;;;;;;;19.00;99.90;;;;;;5058559;28;19970;-81
2024/04/07 08:49:31;;;;;;;;;;;19.10;99.90;;;;;;5059362;28;19912;-81
2024/04/07 08:51:56;;;;;;;;;;;19.20;99.90;;;;;;5042780;28;19963;-81
2024/04/07 08:54:22;;;;;;;;;;;19.20;99.90;;;;;;5026858;28;19921;-81
2024/04/07 08:56:47;;;;;;;;;;;19.20;99.90;;;;;;5026307;28;20313;-81
2024/04/07 08:59:13;;;;;;;;;;;19.20;99.90;;;;;;5056000;28;19999;-81
2024/04/07 09:01:39;;;;;;;;;;;19.30;99.90;;;;;;5054941;28;20016;-80
2024/04/07 09:04:04;;;;;;;;;;;19.30;99.90;;;;;;5050524;28;19927;-80
2024/04/07 09:06:31;;;;;;;;;;;19.30;99.90;;;;;;5065283;28;19920;-81
2024/04/07 09:08:57;;;;;;;;;;;19.30;99.90;;;;;;5021785;28;19916;-81
2024/04/07 09:11:26;;;;;;;;;;;19.40;99.90;;;;;;5068534;28;20617;-81
2024/04/07 09:13:52;;;;;;;;;;;19.40;99.90;;;;;;5058885;28;19921;-80
2024/04/07 09:16:17;;;;;;;;;;;19.50;99.90;;;;;;5025047;28;19916;-81
2024/04/07 09:18:43;;;;;;;;;;;19.50;99.90;;;;;;5045033;28;19913;-81
2024/04/07 09:21:19;;;;;;;;;;;19.50;99.90;;;;;;5024976;28;19924;-81
2024/04/07 09:23:46;;;;;;;;;;;19.60;99.90;;;;;;5024962;28;19917;-81
2024/04/07 09:26:13;;;;;;;;;;;19.60;99.90;;;;;;5021072;28;19920;-81
2024/04/07 09:28:38;;;;;;;;;;;19.70;99.90;;;;;;5034219;28;19998;-80
2024/04/07 09:31:04;;;;;;;;;;;19.70;99.90;;;;;;5041266;28;19943;-80
2024/04/07 09:33:30;;;;;;;;;;;19.80;99.90;;;;;;5025558;28;19950;-80
2024/04/07 09:35:58;;;;;;;;;;;19.80;99.80;;;;;;5038087;28;19916;-80
2024/04/07 09:38:24;;;;;;;;;;;19.80;99.30;;;;;;5026982;28;20252;-79
2024/04/07 09:40:50;;;;;;;;;;;19.80;99.20;;;;;;5043730;28;19924;-80
2024/04/07 09:43:15;;;;;;;;;;;19.80;99.60;;;;;;5106896;28;20550;-80
2024/04/07 09:45:41;;;;;;;;;;;19.90;99.50;;;;;;5081000;28;19916;-81
2024/04/07 09:48:07;;;;;;;;;;;19.90;99.40;;;;;;5057905;28;19965;-81
2024/04/07 09:50:37;;;;;;;;;;;20.00;99.70;;;;;;5061708;28;19920;-81
2024/04/07 09:53:18;;;;;;;;;;;20.10;99.50;;;;;;5094121;28;20012;-79
2024/04/07 09:55:44;;;;;;;;;;;20.10;99.00;;;;;;5074577;28;19923;-79
2024/04/07 09:58:09;;;;;;;;;;;20.20;99.00;;;;;;5048848;28;19916;-78
2024/04/07 10:00:35;;;;;;;;;;;20.20;98.80;;;;;;5065224;28;19912;-79
2024/04/07 10:03:03;;;;;;;;;;;20.30;99.10;;;;;;5083065;28;19927;-79
2024/04/07 10:05:28;;;;;;;;;;;20.40;98.90;;;;;;5082864;28;19993;-79
2024/04/07 10:07:54;;;;;;;;;;;20.40;98.80;;;;;;5099411;28;20379;-79
2024/04/07 10:10:25;;;;;;;;;;;20.60;99.70;;;;;;5086123;28;19922;-80
2024/04/07 10:12:54;;;;;;;;;;;20.70;99.20;;;;;;5082731;28;19926;-79
2024/04/07 10:15:22;;;;;;;;;;;20.80;98.50;;;;;;5082881;28;19916;-79
2024/04/07 10:17:48;;;;;;;;;;;20.80;98.50;;;;;;5062423;28;20011;-78
2024/04/07 10:20:14;;;;;;;;;;;20.90;98.00;;;;;;5082531;28;19916;-79
2024/04/07 10:22:43;;;;;;;;;;;20.90;97.90;;;;;;5058408;28;20435;-78
2024/04/07 10:25:09;;;;;;;;;;;20.70;97.40;;;;;;5073245;28;19912;-79
2024/04/07 10:27:40;;;;;;;;;;;20.70;97.60;;;;;;5078988;28;20053;-79
2024/04/07 10:30:07;;;;;;;;;;;20.60;98.10;;;;;;5066261;28;19916;-79
2024/04/07 10:32:33;;;;;;;;;;;20.60;98.20;;;;;;5099807;28;19920;-79
2024/04/07 10:35:00;;;;;;;;;;;20.60;98.10;;;;;;5065493;28;19948;-79
2024/04/07 10:37:25;;;;;;;;;;;20.60;98.40;;;;;;5084153;28;19916;-79
2024/04/07 10:39:51;;;;;;;;;;;20.60;98.50;;;;;;5066737;28;20324;-79
2024/04/07 10:42:17;;;;;;;;;;;20.50;98.40;;;;;;5072915;28;19916;-79
2024/04/07 10:44:43;;;;;;;;;;;20.40;98.20;;;;;;5080051;28;19928;-79
2024/04/07 10:47:08;;;;;;;;;;;20.40;98.50;;;;;;5077907;28;19919;-80
2024/04/07 10:49:34;;;;;;;;;;;20.40;98.30;;;;;;5070653;28;20279;-79
2024/04/07 10:52:00;;;;;;;;;;;20.40;98.50;;;;;;5078330;28;20332;-80
2024/04/07 10:54:27;;;;;;;;;;;20.40;98.80;;;;;;5052662;28;20467;-80
2024/04/07 10:56:52;;;;;;;;;;;20.40;98.60;;;;;;5053556;28;19920;-78
2024/04/07 10:59:18;;;;;;;;;;;20.40;98.70;;;;;;5065047;28;20010;-79
2024/04/07 11:01:43;;;;;;;;;;;20.30;98.70;;;;;;5072695;28;19927;-78
2024/04/07 11:04:10;;;;;;;;;;;20.30;98.80;;;;;;5058413;28;19916;-79
2024/04/07 11:06:35;;;;;;;;;;;20.40;98.90;;;;;;5064885;28;19912;-79
2024/04/07 11:09:01;;;;;;;;;;;20.40;99.00;;;;;;5051457;28;19912;-80
2024/04/07 11:11:27;;;;;;;;;;;20.40;99.40;;;;;;5058019;28;20328;-80
2024/04/07 11:13:53;;;;;;;;;;;20.40;99.30;;;;;;5066542;28;19920;-80
2024/04/07 11:16:19;;;;;;;;;;;20.40;99.50;;;;;;5084766;28;19916;-81
2024/04/07 11:18:45;;;;;;;;;;;20.40;99.10;;;;;;5081441;28;19912;-80
2024/04/07 11:21:10;;;;;;;;;;;20.50;99.40;;;;;;5081394;28;20593;-80
2024/04/07 11:23:39;;;;;;;;;;;20.50;99.60;;;;;;5058813;28;19912;-80
2024/04/07 11:26:05;;;;;;;;;;;20.70;99.20;;;;;;5070580;28;19939;-80
2024/04/07 11:28:31;;;;;;;;;;;20.70;99.10;;;;;;5047880;28;19912;-81
2024/04/07 11:30:56;;;;;;;;;;;20.80;98.90;;;;;;5062305;28;19927;-80
2024/04/07 11:33:23;;;;;;;;;;;20.80;99.00;;;;;;5044513;28;19927;-80
2024/04/07 11:35:49;;;;;;;;;;;20.90;99.10;;;;;;5071273;28;19919;-80
2024/04/07 11:38:14;;;;;;;;;;;20.90;98.80;;;;;;5080988;28;19916;-79
2024/04/07 11:40:40;;;;;;;;;;;20.90;98.90;;;;;;5063532;28;20221;-80
2024/04/07 11:43:09;;;;;;;;;;;21.20;99.20;;;;;;5077486;28;19919;-80
2024/04/07 11:45:34;;;;;;;;;;;21.30;98.10;;;;;;5075075;28;20014;-80
2024/04/07 11:48:00;;;;;;;;;;;21.40;97.90;;;;;;5099033;28;20383;-80
2024/04/07 11:50:26;;;;;;;;;;;21.50;98.20;;;;;;5048493;28;19922;-80
2024/04/07 11:52:51;;;;;;;;;;;21.80;98.10;;;;;;5081031;28;19959;-81
2024/04/07 11:55:17;;;;;;;;;;;22.00;97.60;;;;;;5060994;28;19916;-80
2024/04/07 11:57:43;;;;;;;;;;;22.10;97.20;;;;;;5072693;28;19981;-80
2024/04/07 12:00:09;;;;;;;;;;;22.30;97.60;;;;;;5081415;28;20252;-81
2024/04/07 12:02:34;;;;;;;;;;;22.30;96.40;;;;;;5063698;28;20236;-80
2024/04/07 12:05:03;;;;;;;;;;;22.20;96.30;;;;;;5060797;28;20352;-80
2024/04/07 12:07:29;;;;;;;;;;;22.10;96.00;;;;;;5060229;28;20332;-81
2024/04/07 12:09:55;;;;;;;;;;;22.10;96.20;;;;;;5050276;28;20313;-80
2024/04/07 12:12:21;;;;;;;;;;;22.10;96.30;;;;;;5080465;28;19980;-81
2024/04/07 12:14:46;;;;;;;;;;;22.10;96.60;;;;;;5063741;28;19916;-81
2024/04/07 12:17:12;;;;;;;;;;;22.10;96.50;;;;;;5044176;28;20011;-80
2024/04/07 12:19:38;;;;;;;;;;;22.20;96.70;;;;;;5091345;28;19912;-80
2024/04/07 12:22:07;;;;;;;;;;;22.30;96.10;;;;;;5098345;28;20350;-80
2024/04/07 12:24:32;;;;;;;;;;;22.20;96.10;;;;;;5064922;28;19958;-81
2024/04/07 12:26:58;;;;;;;;;;;22.20;95.10;;;;;;5047145;28;20328;-81
2024/04/07 12:29:24;;;;;;;;;;;22.20;95.00;;;;;;5075104;28;19991;-80
2024/04/07 12:31:51;;;;;;;;;;;22.20;95.30;;;;;;5063252;28;19911;-80
2024/04/07 12:34:17;;;;;;;;;;;22.30;95.60;;;;;;5071313;28;19944;-81
2024/04/07 12:36:43;;;;;;;;;;;22.40;95.10;;;;;;5055394;28;19927;-80
2024/04/07 12:39:08;;;;;;;;;;;22.40;92.90;;;;;;5080819;28;19912;-80
2024/04/07 12:41:34;;;;;;;;;;;22.50;93.10;;;;;;5032477;28;20007;-80
2024/04/07 12:44:00;;;;;;;;;;;22.50;92.40;;;;;;5014953;28;19917;-80
2024/04/07 12:46:26;;;;;;;;;;;22.50;93.10;;;;;;5077851;28;19987;-79
2024/04/07 12:48:51;;;;;;;;;;;22.50;92.00;;;;;;5045611;28;19917;-80
2024/04/07 12:51:17;;;;;;;;;;;22.50;92.80;;;;;;5043224;28;20611;-81
2024/04/07 12:53:43;;;;;;;;;;;22.50;92.50;;;;;;5046891;28;20222;-81
2024/04/07 12:56:14;;;;;;;;;;;22.60;91.90;;;;;;5031271;28;20359;-82
2024/04/07 12:58:39;;;;;;;;;;;22.90;92.40;;;;;;5052246;28;19951;-80
2024/04/07 13:01:06;;;;;;;;;;;23.00;91.90;;;;;;5077895;28;20348;-81
2024/04/07 13:03:32;;;;;;;;;;;23.20;92.00;;;;;;5042165;28;19916;-83
2024/04/07 13:05:58;;;;;;;;;;;23.40;92.80;;;;;;5057894;28;19946;-82
2024/04/07 13:08:23;;;;;;;;;;;23.70;92.40;;;;;;5040553;28;19917;-81
2024/04/07 13:10:49;;;;;;;;;;;23.90;91.60;;;;;;5059742;28;20325;-80
2024/04/07 13:13:15;;;;;;;;;;;23.90;90.40;;;;;;5042439;28;20521;-82
2024/04/07 13:15:41;;;;;;;;;;;23.80;90.50;;;;;;5056638;28;19912;-82
2024/04/07 13:18:07;;;;;;;;;;;24.10;90.70;;;;;;5050118;28;19916;-80
2024/04/07 13:20:33;;;;;;;;;;;24.30;90.60;;;;;;5041869;28;19962;-80
2024/04/07 13:22:59;;;;;;;;;;;24.30;90.30;;;;;;5063461;28;19926;-80
2024/04/07 13:25:25;;;;;;;;;;;24.10;90.70;;;;;;5050311;28;19967;-81
2024/04/07 13:27:54;;;;;;;;;;;24.00;90.50;;;;;;5014069;28;19944;-80
2024/04/07 13:30:19;;;;;;;;;;;24.20;90.30;;;;;;5065015;28;19999;-80
2024/04/07 13:32:45;;;;;;;;;;;24.20;90.50;;;;;;5048839;28;19948;-80
2024/04/07 13:35:12;;;;;;;;;;;24.50;90.40;;;;;;5048065;28;19923;-80
2024/04/07 13:37:38;;;;;;;;;;;24.70;90.20;;;;;;5062513;28;19917;-80
2024/04/07 13:40:03;;;;;;;;;;;24.80;90.70;;;;;;5046780;28;20284;-80
2024/04/07 13:42:29;;;;;;;;;;;25.00;89.40;;;;;;5032737;28;19932;-80
2024/04/07 13:44:55;;;;;;;;;;;25.10;90.20;;;;;;5067136;28;19912;-80
2024/04/07 13:47:21;;;;;;;;;;;25.10;89.70;;;;;;5067706;28;19944;-79
2024/04/07 13:49:46;;;;;;;;;;;25.20;89.00;;;;;;5066990;28;19912;-79
2024/04/07 13:52:12;;;;;;;;;;;25.30;88.50;;;;;;5083295;28;19916;-79
2024/04/07 13:54:38;;;;;;;;;;;25.20;87.70;;;;;;5049956;28;20241;-78
2024/04/07 13:57:03;;;;;;;;;;;25.20;86.60;;;;;;5083083;28;19916;-78
2024/04/07 13:59:29;;;;;;;;;;;25.00;85.80;;;;;;5046359;28;19912;-78
2024/04/07 14:01:55;;;;;;;;;;;25.10;85.20;;;;;;5079568;28;19967;-79
2024/04/07 14:04:21;;;;;;;;;;;25.00;86.00;;;;;;5066916;28;19942;-81
2024/04/07 14:06:46;;;;;;;;;;;25.00;86.80;;;;;;5084157;28;19947;-78
2024/04/07 14:09:12;;;;;;;;;;;24.80;86.70;;;;;;5082899;28;20007;-78
2024/04/07 14:11:40;;;;;;;;;;;24.70;87.10;;;;;;5065898;28;19931;-78